sensor_id;sensor_type;location;lat;lon;timestamp;temperature;humidity
23633;DHT22;11993;48.748;9.166;2022-11-02T00:01:52;11.70;74.90
23633;DHT22;11993;48.748;9.166;2022-11-02T00:04:18;11.70;75.10
23633;DHT22;11993;48.748;9.166;2022-11-02T00:06:43;11.80;75.00
23633;DHT22;11993;48.748;9.166;2022-11-02T00:09:09;11.60;75.30
23633;DHT22;11993;48.748;9.166;2022-11-02T00:11:35;11.60;75.60
23633;DHT22;11993;48.748;9.166;2022-11-02T00:14:02;11.60;75.50
23633;DHT22;11993;48.748;9.166;2022-11-02T00:16:27;11.60;75.40
23633;DHT22;11993;48.748;9.166;2022-11-02T00:18:54;11.60;75.50
23633;DHT22;11993;48.748;9.166;2022-11-02T00:21:23;11.60;75.50
23633;DHT22;11993;48.748;9.166;2022-11-02T00:23:50;11.60;75.70
23633;DHT22;11993;48.748;9.166;2022-11-02T00:26:16;11.40;76.00
23633;DHT22;11993;48.748;9.166;2022-11-02T00:28:42;11.30;76.20
23633;DHT22;11993;48.748;9.166;2022-11-02T00:31:08;11.40;76.40
23633;DHT22;11993;48.748;9.166;2022-11-02T00:33:33;11.40;76.30
23633;DHT22;11993;48.748;9.166;2022-11-02T00:35:59;11.40;76.10
23633;DHT22;11993;48.748;9.166;2022-11-02T00:38:24;11.40;76.30
23633;DHT22;11993;48.748;9.166;2022-11-02T00:40:50;11.30;76.30
23633;DHT22;11993;48.748;9.166;2022-11-02T00:43:15;11.30;76.30
23633;DHT22;11993;48.748;9.166;2022-11-02T00:45:41;11.10;76.70
23633;DHT22;11993;48.748;9.166;2022-11-02T00:48:06;11.20;77.10
23633;DHT22;11993;48.748;9.166;2022-11-02T00:50:32;11.00;77.50
23633;DHT22;11993;48.748;9.166;2022-11-02T00:52:58;10.90;78.00
23633;DHT22;11993;48.748;9.166;2022-11-02T00:55:23;10.80;78.30
23633;DHT22;11993;48.748;9.166;2022-11-02T00:57:49;10.80;78.40
23633;DHT22;11993;48.748;9.166;2022-11-02T01:00:15;10.80;78.50
23633;DHT22;11993;48.748;9.166;2022-11-02T01:02:40;10.70;79.10
23633;DHT22;11993;48.748;9.166;2022-11-02T01:05:07;10.60;79.50
23633;DHT22;11993;48.748;9.166;2022-11-02T01:07:33;10.60;79.70
23633;DHT22;11993;48.748;9.166;2022-11-02T01:09:59;10.60;79.60
23633;DHT22;11993;48.748;9.166;2022-11-02T01:12:26;10.40;80.30
23633;DHT22;11993;48.748;9.166;2022-11-02T01:14:52;10.40;80.30
23633;DHT22;11993;48.748;9.166;2022-11-02T01:17:18;10.40;80.10
23633;DHT22;11993;48.748;9.166;2022-11-02T01:19:43;10.50;80.10
23633;DHT22;11993;48.748;9.166;2022-11-02T01:22:09;10.30;80.40
23633;DHT22;11993;48.748;9.166;2022-11-02T01:24:35;10.30;80.50
23633;DHT22;11993;48.748;9.166;2022-11-02T01:27:01;10.30;80.50
23633;DHT22;11993;48.748;9.166;2022-11-02T01:29:26;10.20;80.90
23633;DHT22;11993;48.748;9.166;2022-11-02T01:31:52;10.20;80.90
23633;DHT22;11993;48.748;9.166;2022-11-02T01:34:18;10.10;81.60
23633;DHT22;11993;48.748;9.166;2022-11-02T01:36:45;10.10;81.60
23633;DHT22;11993;48.748;9.166;2022-11-02T01:39:14;10.10;81.40
23633;DHT22;11993;48.748;9.166;2022-11-02T01:41:40;10.10;81.50
23633;DHT22;11993;48.748;9.166;2022-11-02T01:44:30;10.10;81.80
23633;DHT22;11993;48.748;9.166;2022-11-02T01:47:03;10.10;81.90
23633;DHT22;11993;48.748;9.166;2022-11-02T01:49:34;10.10;81.70
23633;DHT22;11993;48.748;9.166;2022-11-02T01:52:08;10.20;81.60
23633;DHT22;11993;48.748;9.166;2022-11-02T01:54:41;10.20;81.50
23633;DHT22;11993;48.748;9.166;2022-11-02T01:57:09;10.40;81.30
23633;DHT22;11993;48.748;9.166;2022-11-02T01:59:46;10.30;81.20
23633;DHT22;11993;48.748;9.166;2022-11-02T02:02:18;10.30;81.40
23633;DHT22;11993;48.748;9.166;2022-11-02T02:04:48;10.40;81.20
23633;DHT22;11993;48.748;9.166;2022-11-02T02:07:15;10.30;81.20
23633;DHT22;11993;48.748;9.166;2022-11-02T02:09:41;10.20;81.20
23633;DHT22;11993;48.748;9.166;2022-11-02T02:12:07;10.30;81.00
23633;DHT22;11993;48.748;9.166;2022-11-02T02:14:33;10.50;80.90
23633;DHT22;11993;48.748;9.166;2022-11-02T02:22:33;10.50;80.90
23633;DHT22;11993;48.748;9.166;2022-11-02T02:30:39;10.30;81.70
23633;DHT22;11993;48.748;9.166;2022-11-02T02:36:08;10.20;82.00
23633;DHT22;11993;48.748;9.166;2022-11-02T02:43:51;10.30;81.70
23633;DHT22;11993;48.748;9.166;2022-11-02T02:46:18;10.30;81.70
23633;DHT22;11993;48.748;9.166;2022-11-02T02:48:46;10.20;82.00
23633;DHT22;11993;48.748;9.166;2022-11-02T02:51:20;10.30;81.80
23633;DHT22;11993;48.748;9.166;2022-11-02T02:53:49;10.40;81.70
23633;DHT22;11993;48.748;9.166;2022-11-02T02:56:20;10.30;81.50
23633;DHT22;11993;48.748;9.166;2022-11-02T02:58:51;10.20;81.90
23633;DHT22;11993;48.748;9.166;2022-11-02T03:01:20;10.40;81.70
23633;DHT22;11993;48.748;9.166;2022-11-02T03:03:46;10.40;81.50
23633;DHT22;11993;48.748;9.166;2022-11-02T03:06:30;10.50;81.50
23633;DHT22;11993;48.748;9.166;2022-11-02T03:11:55;10.40;81.30
23633;DHT22;11993;48.748;9.166;2022-11-02T03:20:32;10.50;80.90
23633;DHT22;11993;48.748;9.166;2022-11-02T03:26:04;10.60;80.40
23633;DHT22;11993;48.748;9.166;2022-11-02T03:34:12;10.70;79.70
23633;DHT22;11993;48.748;9.166;2022-11-02T03:36:44;10.70;79.60
23633;DHT22;11993;48.748;9.166;2022-11-02T03:39:12;10.80;79.50
23633;DHT22;11993;48.748;9.166;2022-11-02T03:41:43;10.70;79.20
23633;DHT22;11993;48.748;9.166;2022-11-02T03:44:16;10.70;79.30
23633;DHT22;11993;48.748;9.166;2022-11-02T03:46:46;10.70;79.40
23633;DHT22;11993;48.748;9.166;2022-11-02T03:49:15;10.60;79.50
23633;DHT22;11993;48.748;9.166;2022-11-02T03:51:43;10.60;79.60
23633;DHT22;11993;48.748;9.166;2022-11-02T03:54:36;10.60;79.40
23633;DHT22;11993;48.748;9.166;2022-11-02T03:57:04;10.60;79.50
23633;DHT22;11993;48.748;9.166;2022-11-02T03:59:31;10.50;79.40
23633;DHT22;11993;48.748;9.166;2022-11-02T04:01:57;10.60;79.30
23633;DHT22;11993;48.748;9.166;2022-11-02T04:04:24;10.60;79.60
23633;DHT22;11993;48.748;9.166;2022-11-02T04:06:50;10.50;79.50
23633;DHT22;11993;48.748;9.166;2022-11-02T04:09:16;10.60;79.30
23633;DHT22;11993;48.748;9.166;2022-11-02T04:11:42;10.70;78.60
23633;DHT22;11993;48.748;9.166;2022-11-02T04:14:26;10.70;78.80
23633;DHT22;11993;48.748;9.166;2022-11-02T04:17:05;10.70;78.50
23633;DHT22;11993;48.748;9.166;2022-11-02T04:19:49;10.70;78.30
23633;DHT22;11993;48.748;9.166;2022-11-02T04:22:15;10.70;78.50
23633;DHT22;11993;48.748;9.166;2022-11-02T04:24:59;10.80;78.30
23633;DHT22;11993;48.748;9.166;2022-11-02T04:27:41;10.70;78.30
23633;DHT22;11993;48.748;9.166;2022-11-02T04:30:07;10.70;78.20
23633;DHT22;11993;48.748;9.166;2022-11-02T04:32:38;10.70;78.30
23633;DHT22;11993;48.748;9.166;2022-11-02T04:35:23;10.70;78.40
23633;DHT22;11993;48.748;9.166;2022-11-02T04:37:48;10.70;78.10
23633;DHT22;11993;48.748;9.166;2022-11-02T04:40:32;10.50;78.70
23633;DHT22;11993;48.748;9.166;2022-11-02T04:42:58;10.60;78.50
23633;DHT22;11993;48.748;9.166;2022-11-02T04:45:24;10.50;78.80
23633;DHT22;11993;48.748;9.166;2022-11-02T04:47:49;10.60;78.70
23633;DHT22;11993;48.748;9.166;2022-11-02T04:50:15;10.40;78.90
23633;DHT22;11993;48.748;9.166;2022-11-02T04:52:40;10.50;78.70
23633;DHT22;11993;48.748;9.166;2022-11-02T04:55:06;10.60;78.40
23633;DHT22;11993;48.748;9.166;2022-11-02T04:57:32;10.50;78.40
23633;DHT22;11993;48.748;9.166;2022-11-02T04:59:57;10.60;78.30
23633;DHT22;11993;48.748;9.166;2022-11-02T05:02:23;10.60;78.30
23633;DHT22;11993;48.748;9.166;2022-11-02T05:04:49;10.60;78.20
23633;DHT22;11993;48.748;9.166;2022-11-02T05:07:14;10.50;78.20
23633;DHT22;11993;48.748;9.166;2022-11-02T05:09:40;10.50;78.20
23633;DHT22;11993;48.748;9.166;2022-11-02T05:12:07;10.40;78.30
23633;DHT22;11993;48.748;9.166;2022-11-02T05:14:33;10.50;78.50
23633;DHT22;11993;48.748;9.166;2022-11-02T05:16:58;10.40;78.30
23633;DHT22;11993;48.748;9.166;2022-11-02T05:19:24;10.40;78.40
23633;DHT22;11993;48.748;9.166;2022-11-02T05:21:49;10.40;78.40
23633;DHT22;11993;48.748;9.166;2022-11-02T05:24:15;10.40;78.60
23633;DHT22;11993;48.748;9.166;2022-11-02T05:26:41;10.30;78.40
23633;DHT22;11993;48.748;9.166;2022-11-02T05:29:07;10.30;78.50
23633;DHT22;11993;48.748;9.166;2022-11-02T05:31:32;10.20;79.00
23633;DHT22;11993;48.748;9.166;2022-11-02T05:33:58;10.20;78.90
23633;DHT22;11993;48.748;9.166;2022-11-02T05:36:24;10.20;78.90
23633;DHT22;11993;48.748;9.166;2022-11-02T05:38:53;10.10;79.10
23633;DHT22;11993;48.748;9.166;2022-11-02T05:41:19;10.00;79.40
23633;DHT22;11993;48.748;9.166;2022-11-02T05:43:45;10.10;79.20
23633;DHT22;11993;48.748;9.166;2022-11-02T05:46:11;10.10;79.30
23633;DHT22;11993;48.748;9.166;2022-11-02T05:48:39;10.10;79.30
23633;DHT22;11993;48.748;9.166;2022-11-02T05:51:05;10.10;79.30
23633;DHT22;11993;48.748;9.166;2022-11-02T05:53:32;10.10;79.40
23633;DHT22;11993;48.748;9.166;2022-11-02T05:56:03;10.10;79.40
23633;DHT22;11993;48.748;9.166;2022-11-02T05:58:29;10.00;79.70
23633;DHT22;11993;48.748;9.166;2022-11-02T06:00:58;10.00;79.80
23633;DHT22;11993;48.748;9.166;2022-11-02T06:03:24;10.00;79.80
23633;DHT22;11993;48.748;9.166;2022-11-02T06:05:57;10.00;79.90
23633;DHT22;11993;48.748;9.166;2022-11-02T06:08:23;10.00;79.80
23633;DHT22;11993;48.748;9.166;2022-11-02T06:10:48;10.00;79.60
23633;DHT22;11993;48.748;9.166;2022-11-02T06:13:14;10.00;79.80
23633;DHT22;11993;48.748;9.166;2022-11-02T06:15:39;10.00;79.90
23633;DHT22;11993;48.748;9.166;2022-11-02T06:18:05;10.00;79.80
23633;DHT22;11993;48.748;9.166;2022-11-02T06:20:32;10.10;79.50
23633;DHT22;11993;48.748;9.166;2022-11-02T06:22:58;10.20;79.30
23633;DHT22;11993;48.748;9.166;2022-11-02T06:25:23;10.20;79.00
23633;DHT22;11993;48.748;9.166;2022-11-02T06:27:50;10.30;78.90
23633;DHT22;11993;48.748;9.166;2022-11-02T06:30:17;10.40;78.60
23633;DHT22;11993;48.748;9.166;2022-11-02T06:32:47;10.40;78.60
23633;DHT22;11993;48.748;9.166;2022-11-02T06:35:13;10.50;78.10
23633;DHT22;11993;48.748;9.166;2022-11-02T06:37:39;10.60;77.90
23633;DHT22;11993;48.748;9.166;2022-11-02T06:40:05;10.70;77.60
23633;DHT22;11993;48.748;9.166;2022-11-02T06:42:30;10.70;77.30
23633;DHT22;11993;48.748;9.166;2022-11-02T06:44:56;10.70;77.30
23633;DHT22;11993;48.748;9.166;2022-11-02T06:47:36;10.60;77.70
23633;DHT22;11993;48.748;9.166;2022-11-02T06:50:04;10.80;77.40
23633;DHT22;11993;48.748;9.166;2022-11-02T06:52:31;11.00;77.10
23633;DHT22;11993;48.748;9.166;2022-11-02T06:54:56;11.10;76.60
23633;DHT22;11993;48.748;9.166;2022-11-02T06:57:22;11.10;76.40
23633;DHT22;11993;48.748;9.166;2022-11-02T06:59:47;11.10;76.30
23633;DHT22;11993;48.748;9.166;2022-11-02T07:02:13;11.10;76.50
23633;DHT22;11993;48.748;9.166;2022-11-02T07:04:39;11.20;76.60
23633;DHT22;11993;48.748;9.166;2022-11-02T07:07:05;11.30;76.30
23633;DHT22;11993;48.748;9.166;2022-11-02T07:09:31;11.30;76.30
23633;DHT22;11993;48.748;9.166;2022-11-02T07:11:57;11.40;76.10
23633;DHT22;11993;48.748;9.166;2022-11-02T07:14:22;11.40;76.20
23633;DHT22;11993;48.748;9.166;2022-11-02T07:16:48;11.50;76.40
23633;DHT22;11993;48.748;9.166;2022-11-02T07:19:13;11.50;76.10
23633;DHT22;11993;48.748;9.166;2022-11-02T07:21:39;11.50;76.20
23633;DHT22;11993;48.748;9.166;2022-11-02T07:24:17;11.50;76.20
23633;DHT22;11993;48.748;9.166;2022-11-02T07:26:49;11.50;76.20
23633;DHT22;11993;48.748;9.166;2022-11-02T07:29:16;11.60;76.00
23633;DHT22;11993;48.748;9.166;2022-11-02T07:31:42;11.70;75.60
23633;DHT22;11993;48.748;9.166;2022-11-02T07:34:07;11.80;75.50
23633;DHT22;11993;48.748;9.166;2022-11-02T07:36:33;11.90;75.40
23633;DHT22;11993;48.748;9.166;2022-11-02T07:38:58;12.10;75.20
23633;DHT22;11993;48.748;9.166;2022-11-02T07:41:24;12.30;74.80
23633;DHT22;11993;48.748;9.166;2022-11-02T07:43:49;12.30;74.40
23633;DHT22;11993;48.748;9.166;2022-11-02T07:46:15;12.50;74.20
23633;DHT22;11993;48.748;9.166;2022-11-02T07:48:41;12.50;74.00
23633;DHT22;11993;48.748;9.166;2022-11-02T07:51:06;12.60;73.50
23633;DHT22;11993;48.748;9.166;2022-11-02T07:53:33;12.60;72.80
23633;DHT22;11993;48.748;9.166;2022-11-02T07:56:00;12.70;73.10
23633;DHT22;11993;48.748;9.166;2022-11-02T07:58:25;12.70;72.80
23633;DHT22;11993;48.748;9.166;2022-11-02T08:00:51;12.80;72.70
23633;DHT22;11993;48.748;9.166;2022-11-02T08:03:18;12.80;72.70
23633;DHT22;11993;48.748;9.166;2022-11-02T08:05:44;12.80;72.70
23633;DHT22;11993;48.748;9.166;2022-11-02T08:08:16;12.80;72.70
23633;DHT22;11993;48.748;9.166;2022-11-02T08:10:44;13.00;72.30
23633;DHT22;11993;48.748;9.166;2022-11-02T08:13:12;13.00;72.30
23633;DHT22;11993;48.748;9.166;2022-11-02T08:15:38;13.10;72.00
23633;DHT22;11993;48.748;9.166;2022-11-02T08:20:30;13.40;71.50
23633;DHT22;11993;48.748;9.166;2022-11-02T08:22:56;13.60;71.30
23633;DHT22;11993;48.748;9.166;2022-11-02T08:25:23;13.80;70.50
23633;DHT22;11993;48.748;9.166;2022-11-02T08:27:48;13.80;70.10
23633;DHT22;11993;48.748;9.166;2022-11-02T08:30:14;14.10;70.00
23633;DHT22;11993;48.748;9.166;2022-11-02T08:32:39;14.10;68.70
23633;DHT22;11993;48.748;9.166;2022-11-02T08:35:05;14.20;69.00
23633;DHT22;11993;48.748;9.166;2022-11-02T08:37:31;14.30;68.70
23633;DHT22;11993;48.748;9.166;2022-11-02T08:39:56;14.50;68.90
23633;DHT22;11993;48.748;9.166;2022-11-02T08:42:22;14.60;68.50
23633;DHT22;11993;48.748;9.166;2022-11-02T08:44:48;14.60;68.10
23633;DHT22;11993;48.748;9.166;2022-11-02T08:47:14;14.70;68.00
23633;DHT22;11993;48.748;9.166;2022-11-02T08:49:40;14.70;67.70
23633;DHT22;11993;48.748;9.166;2022-11-02T08:52:06;14.70;67.80
23633;DHT22;11993;48.748;9.166;2022-11-02T08:54:32;14.80;67.70
23633;DHT22;11993;48.748;9.166;2022-11-02T08:57:00;14.80;67.50
23633;DHT22;11993;48.748;9.166;2022-11-02T08:59:26;14.70;67.70
23633;DHT22;11993;48.748;9.166;2022-11-02T09:01:52;14.60;68.30
23633;DHT22;11993;48.748;9.166;2022-11-02T09:04:18;14.90;68.10
23633;DHT22;11993;48.748;9.166;2022-11-02T09:06:43;15.10;68.10
23633;DHT22;11993;48.748;9.166;2022-11-02T09:09:09;15.20;66.90
23633;DHT22;11993;48.748;9.166;2022-11-02T09:11:35;15.20;66.10
23633;DHT22;11993;48.748;9.166;2022-11-02T09:14:01;15.30;65.60
23633;DHT22;11993;48.748;9.166;2022-11-02T09:16:31;15.20;66.70
23633;DHT22;11993;48.748;9.166;2022-11-02T09:18:57;14.90;65.40
23633;DHT22;11993;48.748;9.166;2022-11-02T09:21:23;14.80;66.10
23633;DHT22;11993;48.748;9.166;2022-11-02T09:23:49;14.70;66.30
23633;DHT22;11993;48.748;9.166;2022-11-02T09:26:15;14.50;66.70
23633;DHT22;11993;48.748;9.166;2022-11-02T09:28:41;14.50;66.70
23633;DHT22;11993;48.748;9.166;2022-11-02T09:31:07;14.40;66.90
23633;DHT22;11993;48.748;9.166;2022-11-02T09:33:32;14.30;67.20
23633;DHT22;11993;48.748;9.166;2022-11-02T09:36:14;14.30;67.50
23633;DHT22;11993;48.748;9.166;2022-11-02T09:38:45;14.60;67.70
23633;DHT22;11993;48.748;9.166;2022-11-02T09:44:07;14.80;66.50
23633;DHT22;11993;48.748;9.166;2022-11-02T09:46:43;14.90;65.70
23633;DHT22;11993;48.748;9.166;2022-11-02T09:49:18;14.90;65.60
23633;DHT22;11993;48.748;9.166;2022-11-02T09:54:26;15.00;65.50
23633;DHT22;11993;48.748;9.166;2022-11-02T09:56:56;15.10;65.00
23633;DHT22;11993;48.748;9.166;2022-11-02T09:59:24;15.00;64.40
23633;DHT22;11993;48.748;9.166;2022-11-02T10:02:10;15.10;64.70
23633;DHT22;11993;48.748;9.166;2022-11-02T10:05:14;15.20;63.80
23633;DHT22;11993;48.748;9.166;2022-11-02T10:16:56;15.30;64.00
23633;DHT22;11993;48.748;9.166;2022-11-02T10:19:23;15.20;62.90
23633;DHT22;11993;48.748;9.166;2022-11-02T10:21:51;15.20;62.80
23633;DHT22;11993;48.748;9.166;2022-11-02T10:26:58;15.20;62.20
23633;DHT22;11993;48.748;9.166;2022-11-02T10:29:41;15.10;61.70
23633;DHT22;11993;48.748;9.166;2022-11-02T10:32:12;15.10;62.20
23633;DHT22;11993;48.748;9.166;2022-11-02T10:34:38;14.90;60.90
23633;DHT22;11993;48.748;9.166;2022-11-02T10:48:25;15.10;60.30
23633;DHT22;11993;48.748;9.166;2022-11-02T10:50:53;15.20;60.60
23633;DHT22;11993;48.748;9.166;2022-11-02T10:53:22;15.20;60.50
23633;DHT22;11993;48.748;9.166;2022-11-02T10:56:03;14.90;60.60
23633;DHT22;11993;48.748;9.166;2022-11-02T10:58:32;14.90;61.10
23633;DHT22;11993;48.748;9.166;2022-11-02T11:01:09;15.00;60.80
23633;DHT22;11993;48.748;9.166;2022-11-02T11:03:52;15.20;60.80
23633;DHT22;11993;48.748;9.166;2022-11-02T11:06:18;15.20;60.30
23633;DHT22;11993;48.748;9.166;2022-11-02T11:08:46;15.20;60.10
23633;DHT22;11993;48.748;9.166;2022-11-02T11:13:41;15.20;60.40
23633;DHT22;11993;48.748;9.166;2022-11-02T11:16:08;15.40;60.50
23633;DHT22;11993;48.748;9.166;2022-11-02T11:18:34;15.40;60.10
23633;DHT22;11993;48.748;9.166;2022-11-02T11:21:02;15.50;59.80
23633;DHT22;11993;48.748;9.166;2022-11-02T11:23:28;15.50;60.10
23633;DHT22;11993;48.748;9.166;2022-11-02T11:26:05;15.60;59.60
23633;DHT22;11993;48.748;9.166;2022-11-02T11:28:40;15.70;59.90
23633;DHT22;11993;48.748;9.166;2022-11-02T11:31:19;15.70;59.50
23633;DHT22;11993;48.748;9.166;2022-11-02T11:33:56;15.70;59.80
23633;DHT22;11993;48.748;9.166;2022-11-02T11:36:25;15.60;59.10
23633;DHT22;11993;48.748;9.166;2022-11-02T11:38:53;15.30;59.20
23633;DHT22;11993;48.748;9.166;2022-11-02T11:41:20;15.40;59.30
23633;DHT22;11993;48.748;9.166;2022-11-02T11:43:47;15.20;59.90
23633;DHT22;11993;48.748;9.166;2022-11-02T11:46:14;15.90;59.30
23633;DHT22;11993;48.748;9.166;2022-11-02T11:48:46;17.00;58.90
23633;DHT22;11993;48.748;9.166;2022-11-02T11:54:31;18.40;53.30
23633;DHT22;11993;48.748;9.166;2022-11-02T11:57:23;19.10;50.50
23633;DHT22;11993;48.748;9.166;2022-11-02T11:59:50;19.30;50.20
23633;DHT22;11993;48.748;9.166;2022-11-02T12:02:33;19.80;49.70
23633;DHT22;11993;48.748;9.166;2022-11-02T12:05:11;20.10;47.30
23633;DHT22;11993;48.748;9.166;2022-11-02T12:22:14;18.90;45.80
23633;DHT22;11993;48.748;9.166;2022-11-02T12:25:17;18.60;47.70
23633;DHT22;11993;48.748;9.166;2022-11-02T12:27:56;18.30;47.70
23633;DHT22;11993;48.748;9.166;2022-11-02T12:30:49;17.90;48.90
23633;DHT22;11993;48.748;9.166;2022-11-02T12:33:41;17.60;48.50
23633;DHT22;11993;48.748;9.166;2022-11-02T12:36:20;17.90;48.00
23633;DHT22;11993;48.748;9.166;2022-11-02T12:38:58;17.60;47.80
23633;DHT22;11993;48.748;9.166;2022-11-02T12:41:38;17.60;47.50
23633;DHT22;11993;48.748;9.166;2022-11-02T12:44:34;18.10;47.30
23633;DHT22;11993;48.748;9.166;2022-11-02T12:50:06;19.80;42.90
23633;DHT22;11993;48.748;9.166;2022-11-02T12:52:36;20.40;41.80
23633;DHT22;11993;48.748;9.166;2022-11-02T12:55:13;21.40;40.90
23633;DHT22;11993;48.748;9.166;2022-11-02T12:57:40;22.10;39.00
23633;DHT22;11993;48.748;9.166;2022-11-02T13:00:16;21.90;38.20
23633;DHT22;11993;48.748;9.166;2022-11-02T13:05:19;21.10;39.00
23633;DHT22;11993;48.748;9.166;2022-11-02T13:08:03;20.80;39.40
23633;DHT22;11993;48.748;9.166;2022-11-02T13:10:39;21.10;39.50
23633;DHT22;11993;48.748;9.166;2022-11-02T13:13:12;21.70;38.20
23633;DHT22;11993;48.748;9.166;2022-11-02T13:15:42;22.00;37.80
23633;DHT22;11993;48.748;9.166;2022-11-02T13:18:20;22.10;37.40
23633;DHT22;11993;48.748;9.166;2022-11-02T13:20:51;22.60;37.10
23633;DHT22;11993;48.748;9.166;2022-11-02T13:23:48;22.70;35.20
23633;DHT22;11993;48.748;9.166;2022-11-02T13:26:25;22.50;35.80
23633;DHT22;11993;48.748;9.166;2022-11-02T13:28:55;22.90;35.40
23633;DHT22;11993;48.748;9.166;2022-11-02T13:31:39;23.40;35.40
23633;DHT22;11993;48.748;9.166;2022-11-02T13:34:13;23.20;35.20
23633;DHT22;11993;48.748;9.166;2022-11-02T13:36:39;23.30;35.50
23633;DHT22;11993;48.748;9.166;2022-11-02T13:39:32;23.30;35.80
23633;DHT22;11993;48.748;9.166;2022-11-02T13:45:06;23.90;34.80
23633;DHT22;11993;48.748;9.166;2022-11-02T13:50:26;24.10;34.10
23633;DHT22;11993;48.748;9.166;2022-11-02T13:53:01;23.20;36.10
23633;DHT22;11993;48.748;9.166;2022-11-02T13:55:39;23.50;36.10
23633;DHT22;11993;48.748;9.166;2022-11-02T13:58:06;23.80;34.90
23633;DHT22;11993;48.748;9.166;2022-11-02T14:00:42;24.00;34.40
23633;DHT22;11993;48.748;9.166;2022-11-02T14:03:19;23.90;35.00
23633;DHT22;11993;48.748;9.166;2022-11-02T14:05:55;24.30;33.70
23633;DHT22;11993;48.748;9.166;2022-11-02T14:08:33;23.50;34.60
23633;DHT22;11993;48.748;9.166;2022-11-02T14:14:04;23.60;34.50
23633;DHT22;11993;48.748;9.166;2022-11-02T14:21:43;23.30;35.70
23633;DHT22;11993;48.748;9.166;2022-11-02T14:26:56;23.10;35.90
23633;DHT22;11993;48.748;9.166;2022-11-02T14:40:52;22.60;38.70
23633;DHT22;11993;48.748;9.166;2022-11-02T14:49:00;22.60;39.40
23633;DHT22;11993;48.748;9.166;2022-11-02T14:51:29;22.90;39.00
23633;DHT22;11993;48.748;9.166;2022-11-02T14:54:16;22.60;38.90
23633;DHT22;11993;48.748;9.166;2022-11-02T14:56:53;22.30;39.70
23633;DHT22;11993;48.748;9.166;2022-11-02T14:59:27;22.30;39.70
23633;DHT22;11993;48.748;9.166;2022-11-02T15:02:03;22.10;39.90
23633;DHT22;11993;48.748;9.166;2022-11-02T15:04:32;21.60;41.10
23633;DHT22;11993;48.748;9.166;2022-11-02T15:07:00;21.40;42.20
23633;DHT22;11993;48.748;9.166;2022-11-02T15:09:50;21.50;41.00
23633;DHT22;11993;48.748;9.166;2022-11-02T15:12:29;21.10;42.40
23633;DHT22;11993;48.748;9.166;2022-11-02T15:15:16;21.20;42.40
23633;DHT22;11993;48.748;9.166;2022-11-02T15:20:19;21.40;41.50
23633;DHT22;11993;48.748;9.166;2022-11-02T15:22:50;21.00;42.40
23633;DHT22;11993;48.748;9.166;2022-11-02T15:25:24;20.50;43.50
23633;DHT22;11993;48.748;9.166;2022-11-02T15:27:53;20.30;44.20
23633;DHT22;11993;48.748;9.166;2022-11-02T15:30:21;20.40;44.20
23633;DHT22;11993;48.748;9.166;2022-11-02T15:32:57;20.50;44.10
23633;DHT22;11993;48.748;9.166;2022-11-02T15:35:28;20.40;44.10
23633;DHT22;11993;48.748;9.166;2022-11-02T15:38:00;20.20;44.30
23633;DHT22;11993;48.748;9.166;2022-11-02T15:40:50;19.80;45.20
23633;DHT22;11993;48.748;9.166;2022-11-02T15:43:38;19.20;46.80
23633;DHT22;11993;48.748;9.166;2022-11-02T15:52:08;18.10;49.80
23633;DHT22;11993;48.748;9.166;2022-11-02T15:57:54;17.60;51.40
23633;DHT22;11993;48.748;9.166;2022-11-02T16:00:23;17.40;51.90
23633;DHT22;11993;48.748;9.166;2022-11-02T16:03:07;17.20;52.10
23633;DHT22;11993;48.748;9.166;2022-11-02T16:05:44;17.00;52.70
23633;DHT22;11993;48.748;9.166;2022-11-02T16:08:46;16.90;52.90
23633;DHT22;11993;48.748;9.166;2022-11-02T16:11:16;16.60;53.60
23633;DHT22;11993;48.748;9.166;2022-11-02T16:13:43;16.60;53.70
23633;DHT22;11993;48.748;9.166;2022-11-02T16:16:16;16.40;54.20
23633;DHT22;11993;48.748;9.166;2022-11-02T16:18:43;16.30;54.30
23633;DHT22;11993;48.748;9.166;2022-11-02T16:21:14;16.20;54.90
23633;DHT22;11993;48.748;9.166;2022-11-02T16:23:45;16.00;55.60
23633;DHT22;11993;48.748;9.166;2022-11-02T16:26:20;15.90;55.40
23633;DHT22;11993;48.748;9.166;2022-11-02T16:28:49;15.80;56.20
23633;DHT22;11993;48.748;9.166;2022-11-02T16:31:26;15.60;56.50
23633;DHT22;11993;48.748;9.166;2022-11-02T16:34:20;15.40;57.30
23633;DHT22;11993;48.748;9.166;2022-11-02T16:36:46;15.20;57.40
23633;DHT22;11993;48.748;9.166;2022-11-02T16:41:38;15.20;57.60
23633;DHT22;11993;48.748;9.166;2022-11-02T16:44:17;15.10;57.80
23633;DHT22;11993;48.748;9.166;2022-11-02T16:46:52;15.00;58.20
23633;DHT22;11993;48.748;9.166;2022-11-02T16:49:21;15.00;58.50
23633;DHT22;11993;48.748;9.166;2022-11-02T16:51:52;14.70;59.00
23633;DHT22;11993;48.748;9.166;2022-11-02T16:54:39;14.70;59.30
23633;DHT22;11993;48.748;9.166;2022-11-02T16:57:15;14.60;59.70
23633;DHT22;11993;48.748;9.166;2022-11-02T16:59:54;14.40;60.20
23633;DHT22;11993;48.748;9.166;2022-11-02T17:02:37;14.40;60.70
23633;DHT22;11993;48.748;9.166;2022-11-02T17:05:05;14.40;60.50
23633;DHT22;11993;48.748;9.166;2022-11-02T17:07:41;14.20;60.60
23633;DHT22;11993;48.748;9.166;2022-11-02T17:10:17;14.10;61.20
23633;DHT22;11993;48.748;9.166;2022-11-02T17:12:44;14.10;61.30
23633;DHT22;11993;48.748;9.166;2022-11-02T17:15:24;14.10;61.40
23633;DHT22;11993;48.748;9.166;2022-11-02T17:17:52;14.20;61.20
23633;DHT22;11993;48.748;9.166;2022-11-02T17:20:37;14.20;61.20
23633;DHT22;11993;48.748;9.166;2022-11-02T17:23:08;14.20;60.70
23633;DHT22;11993;48.748;9.166;2022-11-02T17:25:38;14.20;60.50
23633;DHT22;11993;48.748;9.166;2022-11-02T17:30:59;14.00;61.10
23633;DHT22;11993;48.748;9.166;2022-11-02T17:33:27;14.00;61.20
23633;DHT22;11993;48.748;9.166;2022-11-02T17:35:56;13.90;61.30
23633;DHT22;11993;48.748;9.166;2022-11-02T17:38:27;13.90;61.30
23633;DHT22;11993;48.748;9.166;2022-11-02T17:40:54;13.60;62.20
23633;DHT22;11993;48.748;9.166;2022-11-02T17:43:21;13.60;62.50
23633;DHT22;11993;48.748;9.166;2022-11-02T17:45:59;13.50;62.80
23633;DHT22;11993;48.748;9.166;2022-11-02T17:48:26;13.40;63.20
23633;DHT22;11993;48.748;9.166;2022-11-02T17:50:54;13.30;63.40
23633;DHT22;11993;48.748;9.166;2022-11-02T17:53:20;13.20;63.60
23633;DHT22;11993;48.748;9.166;2022-11-02T17:55:49;13.30;63.60
23633;DHT22;11993;48.748;9.166;2022-11-02T17:58:20;13.30;63.80
23633;DHT22;11993;48.748;9.166;2022-11-02T18:00:46;13.20;63.80
23633;DHT22;11993;48.748;9.166;2022-11-02T18:03:14;13.20;64.00
23633;DHT22;11993;48.748;9.166;2022-11-02T18:05:41;13.10;64.00
23633;DHT22;11993;48.748;9.166;2022-11-02T18:08:07;13.00;64.40
23633;DHT22;11993;48.748;9.166;2022-11-02T18:10:40;13.00;64.60
23633;DHT22;11993;48.748;9.166;2022-11-02T18:13:10;13.10;64.60
23633;DHT22;11993;48.748;9.166;2022-11-02T18:15:36;13.10;64.60